sensor_id;sensor_type;location;lat;lon;timestamp;pressure;altitude;pressure_sealevel;temperature;humidity
6778;BME280;3426;52.244;10.534;2023-01-27T00:00:37;101378.41;;;4.16;81.65
6778;BME280;3426;52.244;10.534;2023-01-27T00:03:04;101378.69;;;3.96;81.57
6778;BME280;3426;52.244;10.534;2023-01-27T00:05:30;101375.75;;;4.67;79.88
6778;BME280;3426;52.244;10.534;2023-01-27T00:07:57;101377.38;;;5.19;77.48
6778;BME280;3426;52.244;10.534;2023-01-27T00:10:24;101370.91;;;5.35;75.72
6778;BME280;3426;52.244;10.534;2023-01-27T00:12:51;101374.94;;;5.51;75.00
6778;BME280;3426;52.244;10.534;2023-01-27T00:15:36;101373.84;;;4.75;79.59
6778;BME280;3426;52.244;10.534;2023-01-27T00:18:03;101368.81;;;5.11;77.38
6778;BME280;3426;52.244;10.534;2023-01-27T00:20:29;101362.34;;;4.82;78.84
6778;BME280;3426;52.244;10.534;2023-01-27T00:23:16;101366.66;;;3.84;82.59
6778;BME280;3426;52.244;10.534;2023-01-27T00:26:03;101370.88;;;3.94;82.78
6778;BME280;3426;52.244;10.534;2023-01-27T00:28:33;101363.47;;;4.19;82.40
6778;BME280;3426;52.244;10.534;2023-01-27T00:30:59;101368.97;;;4.03;82.73
6778;BME280;3426;52.244;10.534;2023-01-27T00:33:26;101368.16;;;4.51;80.92
6778;BME280;3426;52.244;10.534;2023-01-27T00:36:01;101370.84;;;3.97;81.58
6778;BME280;3426;52.244;10.534;2023-01-27T00:38:29;101369.13;;;4.46;81.64
6778;BME280;3426;52.244;10.534;2023-01-27T00:40:57;101372.00;;;3.77;83.42
6778;BME280;3426;52.244;10.534;2023-01-27T00:43:42;101368.50;;;4.33;83.18
6778;BME280;3426;52.244;10.534;2023-01-27T00:46:08;101370.28;;;4.31;82.93
6778;BME280;3426;52.244;10.534;2023-01-27T00:48:35;101373.56;;;3.91;83.13
6778;BME280;3426;52.244;10.534;2023-01-27T00:51:02;101363.09;;;3.88;84.65
6778;BME280;3426;52.244;10.534;2023-01-27T00:53:29;101366.41;;;3.99;84.83
6778;BME280;3426;52.244;10.534;2023-01-27T00:55:56;101359.97;;;4.20;82.18
6778;BME280;3426;52.244;10.534;2023-01-27T00:58:24;101375.97;;;4.56;82.31
6778;BME280;3426;52.244;10.534;2023-01-27T01:00:55;101376.84;;;4.04;84.12
6778;BME280;3426;52.244;10.534;2023-01-27T01:03:22;101375.53;;;4.31;82.09
6778;BME280;3426;52.244;10.534;2023-01-27T01:05:48;101380.25;;;4.09;83.03
6778;BME280;3426;52.244;10.534;2023-01-27T01:08:15;101385.34;;;4.20;82.43
6778;BME280;3426;52.244;10.534;2023-01-27T01:10:43;101374.75;;;4.74;83.38
6778;BME280;3426;52.244;10.534;2023-01-27T01:13:10;101381.59;;;4.81;82.09
6778;BME280;3426;52.244;10.534;2023-01-27T01:15:39;101383.22;;;4.40;83.54
6778;BME280;3426;52.244;10.534;2023-01-27T01:18:08;101382.19;;;4.50;81.53
6778;BME280;3426;52.244;10.534;2023-01-27T01:20:37;101377.03;;;4.44;83.94
6778;BME280;3426;52.244;10.534;2023-01-27T01:23:05;101376.69;;;5.11;79.13
6778;BME280;3426;52.244;10.534;2023-01-27T01:25:32;101390.47;;;4.26;82.58
6778;BME280;3426;52.244;10.534;2023-01-27T01:28:00;101384.91;;;4.44;82.27
6778;BME280;3426;52.244;10.534;2023-01-27T01:30:27;101387.69;;;4.85;81.64
6778;BME280;3426;52.244;10.534;2023-01-27T01:32:55;101387.78;;;4.78;81.11
6778;BME280;3426;52.244;10.534;2023-01-27T01:35:23;101392.44;;;4.63;82.10
6778;BME280;3426;52.244;10.534;2023-01-27T01:37:53;101395.75;;;4.74;82.00
6778;BME280;3426;52.244;10.534;2023-01-27T01:40:20;101398.81;;;4.49;82.18
6778;BME280;3426;52.244;10.534;2023-01-27T01:42:58;101400.94;;;4.28;83.94
6778;BME280;3426;52.244;10.534;2023-01-27T01:48:03;101393.94;;;4.76;82.59
6778;BME280;3426;52.244;10.534;2023-01-27T01:50:32;101395.44;;;4.41;82.96
6778;BME280;3426;52.244;10.534;2023-01-27T01:53:00;101395.16;;;4.58;82.92
6778;BME280;3426;52.244;10.534;2023-01-27T01:55:29;101396.19;;;4.48;83.39
6778;BME280;3426;52.244;10.534;2023-01-27T01:57:57;101394.84;;;4.75;80.67
6778;BME280;3426;52.244;10.534;2023-01-27T02:00:24;101396.59;;;5.21;79.74
6778;BME280;3426;52.244;10.534;2023-01-27T02:02:50;101405.78;;;4.98;83.42
6778;BME280;3426;52.244;10.534;2023-01-27T02:05:21;101404.91;;;4.98;80.69
6778;BME280;3426;52.244;10.534;2023-01-27T02:08:04;101406.09;;;4.83;80.62
6778;BME280;3426;52.244;10.534;2023-01-27T02:10:33;101407.50;;;4.51;83.28
6778;BME280;3426;52.244;10.534;2023-01-27T02:13:00;101404.25;;;4.87;82.06
6778;BME280;3426;52.244;10.534;2023-01-27T02:15:28;101411.09;;;4.46;83.20
6778;BME280;3426;52.244;10.534;2023-01-27T02:17:55;101408.16;;;4.64;82.72
6778;BME280;3426;52.244;10.534;2023-01-27T02:20:26;101405.22;;;4.81;83.20
6778;BME280;3426;52.244;10.534;2023-01-27T02:28:04;101418.38;;;4.29;85.43
6778;BME280;3426;52.244;10.534;2023-01-27T02:30:32;101419.25;;;4.29;84.88
6778;BME280;3426;52.244;10.534;2023-01-27T02:32:59;101416.69;;;4.26;85.74
6778;BME280;3426;52.244;10.534;2023-01-27T02:35:32;101413.41;;;4.66;85.56
6778;BME280;3426;52.244;10.534;2023-01-27T02:38:03;101408.34;;;4.53;86.63
6778;BME280;3426;52.244;10.534;2023-01-27T02:40:32;101422.19;;;4.09;86.59
6778;BME280;3426;52.244;10.534;2023-01-27T02:42:59;101419.53;;;4.63;84.55
6778;BME280;3426;52.244;10.534;2023-01-27T02:45:25;101407.06;;;4.76;84.87
6778;BME280;3426;52.244;10.534;2023-01-27T02:47:54;101413.22;;;4.75;83.20
6778;BME280;3426;52.244;10.534;2023-01-27T02:50:20;101414.94;;;4.27;86.23
6778;BME280;3426;52.244;10.534;2023-01-27T02:52:47;101417.97;;;5.02;82.96
6778;BME280;3426;52.244;10.534;2023-01-27T02:55:13;101413.78;;;4.41;84.38
6778;BME280;3426;52.244;10.534;2023-01-27T02:57:40;101424.25;;;4.44;84.83
6778;BME280;3426;52.244;10.534;2023-01-27T03:00:07;101423.19;;;4.56;83.80
6778;BME280;3426;52.244;10.534;2023-01-27T03:02:34;101426.91;;;4.41;86.63
6778;BME280;3426;52.244;10.534;2023-01-27T03:05:01;101422.47;;;4.46;87.14
6778;BME280;3426;52.244;10.534;2023-01-27T03:07:27;101422.63;;;4.36;85.28
6778;BME280;3426;52.244;10.534;2023-01-27T03:09:54;101428.56;;;4.48;85.89
6778;BME280;3426;52.244;10.534;2023-01-27T03:12:20;101427.34;;;4.68;84.22
6778;BME280;3426;52.244;10.534;2023-01-27T03:14:48;101427.44;;;5.11;82.73
6778;BME280;3426;52.244;10.534;2023-01-27T03:17:34;101436.91;;;4.70;84.65
6778;BME280;3426;52.244;10.534;2023-01-27T03:20:19;101431.88;;;4.58;86.32
6778;BME280;3426;52.244;10.534;2023-01-27T03:22:47;101431.94;;;5.03;85.73
6778;BME280;3426;52.244;10.534;2023-01-27T03:25:14;101438.72;;;4.13;85.67
6778;BME280;3426;52.244;10.534;2023-01-27T03:27:41;101443.97;;;4.67;86.02
6778;BME280;3426;52.244;10.534;2023-01-27T03:30:08;101446.19;;;4.39;86.38
6778;BME280;3426;52.244;10.534;2023-01-27T03:32:35;101434.28;;;5.18;84.39
6778;BME280;3426;52.244;10.534;2023-01-27T03:35:02;101434.72;;;5.40;81.44
6778;BME280;3426;52.244;10.534;2023-01-27T03:37:30;101452.78;;;4.63;82.84
6778;BME280;3426;52.244;10.534;2023-01-27T03:40:16;101450.31;;;4.55;85.25
6778;BME280;3426;52.244;10.534;2023-01-27T03:43:01;101454.88;;;4.93;84.27
6778;BME280;3426;52.244;10.534;2023-01-27T03:45:48;101452.78;;;4.63;84.41
6778;BME280;3426;52.244;10.534;2023-01-27T03:48:34;101451.50;;;4.88;83.25
6778;BME280;3426;52.244;10.534;2023-01-27T03:51:03;101453.09;;;4.95;84.42
6778;BME280;3426;52.244;10.534;2023-01-27T03:53:30;101464.47;;;4.45;85.22
6778;BME280;3426;52.244;10.534;2023-01-27T03:55:57;101456.63;;;4.93;84.40
6778;BME280;3426;52.244;10.534;2023-01-27T03:58:24;101457.63;;;5.32;81.95
6778;BME280;3426;52.244;10.534;2023-01-27T04:00:56;101461.38;;;4.72;83.96
6778;BME280;3426;52.244;10.534;2023-01-27T04:03:24;101461.91;;;4.40;85.12
6778;BME280;3426;52.244;10.534;2023-01-27T04:06:12;101460.84;;;4.52;84.62
6778;BME280;3426;52.244;10.534;2023-01-27T04:08:57;101459.44;;;4.82;83.98
6778;BME280;3426;52.244;10.534;2023-01-27T04:11:24;101458.28;;;5.00;83.17
6778;BME280;3426;52.244;10.534;2023-01-27T04:14:12;101461.63;;;4.57;84.62
6778;BME280;3426;52.244;10.534;2023-01-27T04:16:39;101467.94;;;4.96;83.53
6778;BME280;3426;52.244;10.534;2023-01-27T04:19:07;101454.03;;;5.39;82.15
6778;BME280;3426;52.244;10.534;2023-01-27T04:21:34;101458.28;;;4.47;85.50
6778;BME280;3426;52.244;10.534;2023-01-27T04:24:01;101451.00;;;5.14;83.08
6778;BME280;3426;52.244;10.534;2023-01-27T04:26:30;101455.75;;;4.92;82.57
6778;BME280;3426;52.244;10.534;2023-01-27T04:29:01;101456.63;;;4.93;84.94
6778;BME280;3426;52.244;10.534;2023-01-27T04:31:27;101462.09;;;5.28;83.28
6778;BME280;3426;52.244;10.534;2023-01-27T04:33:54;101459.16;;;5.44;81.76
6778;BME280;3426;52.244;10.534;2023-01-27T04:36:21;101466.16;;;4.47;84.58
6778;BME280;3426;52.244;10.534;2023-01-27T04:38:47;101460.56;;;5.60;81.71
6778;BME280;3426;52.244;10.534;2023-01-27T04:41:14;101470.06;;;5.24;81.23
6778;BME280;3426;52.244;10.534;2023-01-27T04:43:41;101463.06;;;5.68;80.49
6778;BME280;3426;52.244;10.534;2023-01-27T04:46:07;101472.41;;;5.81;78.86
6778;BME280;3426;52.244;10.534;2023-01-27T04:48:34;101477.13;;;5.65;81.02
6778;BME280;3426;52.244;10.534;2023-01-27T04:51:01;101477.66;;;5.38;80.91
6778;BME280;3426;52.244;10.534;2023-01-27T04:53:27;101475.56;;;5.98;79.79
6778;BME280;3426;52.244;10.534;2023-01-27T04:56:00;101480.69;;;5.63;81.60
6778;BME280;3426;52.244;10.534;2023-01-27T04:58:27;101486.38;;;5.41;79.77
6778;BME280;3426;52.244;10.534;2023-01-27T05:00:54;101489.81;;;5.43;81.92
6778;BME280;3426;52.244;10.534;2023-01-27T05:03:20;101495.78;;;5.96;79.90
6778;BME280;3426;52.244;10.534;2023-01-27T05:05:47;101484.09;;;5.66;79.30
6778;BME280;3426;52.244;10.534;2023-01-27T05:08:13;101497.28;;;5.65;80.62
6778;BME280;3426;52.244;10.534;2023-01-27T05:10:42;101492.09;;;6.03;78.51
6778;BME280;3426;52.244;10.534;2023-01-27T05:13:10;101497.16;;;6.13;78.56
6778;BME280;3426;52.244;10.534;2023-01-27T05:15:36;101498.22;;;6.04;77.79
6778;BME280;3426;52.244;10.534;2023-01-27T05:18:03;101496.97;;;5.80;81.02
6778;BME280;3426;52.244;10.534;2023-01-27T05:20:30;101499.75;;;5.29;81.08
6778;BME280;3426;52.244;10.534;2023-01-27T05:22:57;101511.97;;;5.30;82.54
6778;BME280;3426;52.244;10.534;2023-01-27T05:25:43;101503.84;;;5.42;81.50
6778;BME280;3426;52.244;10.534;2023-01-27T05:28:10;101516.88;;;5.48;80.88
6778;BME280;3426;52.244;10.534;2023-01-27T05:30:37;101509.59;;;5.63;81.52
6778;BME280;3426;52.244;10.534;2023-01-27T05:33:04;101499.72;;;5.72;80.76
6778;BME280;3426;52.244;10.534;2023-01-27T05:35:33;101510.13;;;5.35;82.80
6778;BME280;3426;52.244;10.534;2023-01-27T05:38:00;101516.19;;;5.82;80.00
6778;BME280;3426;52.244;10.534;2023-01-27T05:40:27;101516.03;;;5.91;79.48
6778;BME280;3426;52.244;10.534;2023-01-27T05:42:53;101512.78;;;5.77;80.22
6778;BME280;3426;52.244;10.534;2023-01-27T05:45:20;101508.44;;;5.76;80.43
6778;BME280;3426;52.244;10.534;2023-01-27T05:47:49;101516.22;;;5.80;80.41
6778;BME280;3426;52.244;10.534;2023-01-27T05:50:17;101515.97;;;5.51;82.12
6778;BME280;3426;52.244;10.534;2023-01-27T05:55:25;101518.13;;;5.74;82.95
6778;BME280;3426;52.244;10.534;2023-01-27T05:57:51;101519.44;;;5.03;83.73
6778;BME280;3426;52.244;10.534;2023-01-27T06:00:19;101518.78;;;5.39;84.29
6778;BME280;3426;52.244;10.534;2023-01-27T06:02:46;101527.66;;;5.33;84.42
6778;BME280;3426;52.244;10.534;2023-01-27T06:05:12;101522.16;;;5.92;80.43
6778;BME280;3426;52.244;10.534;2023-01-27T06:07:39;101526.56;;;5.88;83.16
6778;BME280;3426;52.244;10.534;2023-01-27T06:10:06;101523.91;;;5.46;82.82
6778;BME280;3426;52.244;10.534;2023-01-27T06:12:33;101527.66;;;5.78;83.40
6778;BME280;3426;52.244;10.534;2023-01-27T06:15:00;101526.50;;;5.48;83.99
6778;BME280;3426;52.244;10.534;2023-01-27T06:17:27;101531.38;;;4.70;86.29
6778;BME280;3426;52.244;10.534;2023-01-27T06:19:54;101536.47;;;4.79;86.83
6778;BME280;3426;52.244;10.534;2023-01-27T06:22:20;101536.66;;;5.66;85.39
6778;BME280;3426;52.244;10.534;2023-01-27T06:24:47;101540.91;;;5.28;85.49
6778;BME280;3426;52.244;10.534;2023-01-27T06:27:14;101539.53;;;5.04;86.90
6778;BME280;3426;52.244;10.534;2023-01-27T06:29:40;101538.28;;;4.77;87.88
6778;BME280;3426;52.244;10.534;2023-01-27T06:32:07;101547.66;;;4.35;90.77
6778;BME280;3426;52.244;10.534;2023-01-27T06:34:33;101548.97;;;4.65;90.01
6778;BME280;3426;52.244;10.534;2023-01-27T06:39:35;101546.94;;;4.83;87.44
6778;BME280;3426;52.244;10.534;2023-01-27T06:42:02;101548.50;;;5.42;87.75
6778;BME280;3426;52.244;10.534;2023-01-27T06:44:30;101545.91;;;5.41;86.55
6778;BME280;3426;52.244;10.534;2023-01-27T06:46:56;101541.34;;;5.02;87.29
6778;BME280;3426;52.244;10.534;2023-01-27T06:49:23;101547.38;;;5.08;87.65
6778;BME280;3426;52.244;10.534;2023-01-27T06:51:49;101548.59;;;5.39;85.51
6778;BME280;3426;52.244;10.534;2023-01-27T06:54:16;101546.63;;;6.35;84.06
6778;BME280;3426;52.244;10.534;2023-01-27T06:56:42;101557.88;;;5.57;85.72
6778;BME280;3426;52.244;10.534;2023-01-27T06:59:09;101554.84;;;5.30;87.17
6778;BME280;3426;52.244;10.534;2023-01-27T07:01:35;101559.28;;;5.75;85.74
6778;BME280;3426;52.244;10.534;2023-01-27T07:04:02;101560.25;;;5.69;86.10
6778;BME280;3426;52.244;10.534;2023-01-27T07:06:28;101568.88;;;5.29;88.52
6778;BME280;3426;52.244;10.534;2023-01-27T07:08:55;101566.59;;;5.11;87.33
6778;BME280;3426;52.244;10.534;2023-01-27T07:11:21;101571.25;;;5.43;85.88
6778;BME280;3426;52.244;10.534;2023-01-27T07:13:49;101571.66;;;5.22;87.01
6778;BME280;3426;52.244;10.534;2023-01-27T07:16:15;101580.00;;;5.45;87.26
6778;BME280;3426;52.244;10.534;2023-01-27T07:18:42;101580.97;;;4.89;87.29
6778;BME280;3426;52.244;10.534;2023-01-27T07:21:08;101580.25;;;5.30;86.52
6778;BME280;3426;52.244;10.534;2023-01-27T07:23:35;101577.78;;;5.22;87.98
6778;BME280;3426;52.244;10.534;2023-01-27T07:26:01;101582.16;;;5.22;86.48
6778;BME280;3426;52.244;10.534;2023-01-27T07:28:37;101583.53;;;5.43;85.86
6778;BME280;3426;52.244;10.534;2023-01-27T07:31:04;101586.72;;;5.11;88.73
6778;BME280;3426;52.244;10.534;2023-01-27T07:33:31;101587.44;;;5.19;88.22
6778;BME280;3426;52.244;10.534;2023-01-27T07:35:57;101588.66;;;4.99;89.41
6778;BME280;3426;52.244;10.534;2023-01-27T07:38:24;101598.38;;;5.44;87.71
6778;BME280;3426;52.244;10.534;2023-01-27T07:40:50;101591.88;;;5.15;87.96
6778;BME280;3426;52.244;10.534;2023-01-27T07:43:17;101599.47;;;5.32;87.07
6778;BME280;3426;52.244;10.534;2023-01-27T07:45:43;101590.91;;;5.21;86.73
6778;BME280;3426;52.244;10.534;2023-01-27T07:48:14;101599.88;;;5.11;88.53
6778;BME280;3426;52.244;10.534;2023-01-27T07:50:41;101602.41;;;5.14;87.82
6778;BME280;3426;52.244;10.534;2023-01-27T07:53:09;101608.06;;;5.42;86.08
6778;BME280;3426;52.244;10.534;2023-01-27T07:55:36;101618.66;;;5.37;87.20
6778;BME280;3426;52.244;10.534;2023-01-27T07:58:03;101622.53;;;5.15;89.85
6778;BME280;3426;52.244;10.534;2023-01-27T08:00:29;101618.31;;;5.57;86.77
6778;BME280;3426;52.244;10.534;2023-01-27T08:02:57;101624.75;;;5.38;85.53
6778;BME280;3426;52.244;10.534;2023-01-27T08:05:24;101634.47;;;4.78;88.71
6778;BME280;3426;52.244;10.534;2023-01-27T08:07:53;101636.09;;;4.89;88.34
6778;BME280;3426;52.244;10.534;2023-01-27T08:10:20;101633.78;;;4.64;88.57
6778;BME280;3426;52.244;10.534;2023-01-27T08:12:47;101639.63;;;5.40;87.67
6778;BME280;3426;52.244;10.534;2023-01-27T08:15:14;101643.91;;;5.44;86.09
6778;BME280;3426;52.244;10.534;2023-01-27T08:17:51;101645.25;;;4.59;88.09
6778;BME280;3426;52.244;10.534;2023-01-27T08:20:18;101652.88;;;5.32;87.56
6778;BME280;3426;52.244;10.534;2023-01-27T08:22:44;101654.31;;;4.99;88.53
6778;BME280;3426;52.244;10.534;2023-01-27T08:25:11;101653.13;;;5.17;87.93
6778;BME280;3426;52.244;10.534;2023-01-27T08:27:37;101660.94;;;4.63;88.65
6778;BME280;3426;52.244;10.534;2023-01-27T08:30:04;101661.22;;;5.03;87.67
6778;BME280;3426;52.244;10.534;2023-01-27T08:32:33;101655.97;;;5.03;87.16
6778;BME280;3426;52.244;10.534;2023-01-27T08:34:59;101670.47;;;5.78;83.67
6778;BME280;3426;52.244;10.534;2023-01-27T08:37:26;101660.94;;;5.73;84.08
6778;BME280;3426;52.244;10.534;2023-01-27T08:39:52;101665.53;;;5.08;85.89
6778;BME280;3426;52.244;10.534;2023-01-27T08:42:19;101670.00;;;4.36;88.24
6778;BME280;3426;52.244;10.534;2023-01-27T08:44:46;101664.84;;;5.49;86.15
6778;BME280;3426;52.244;10.534;2023-01-27T08:47:13;101662.56;;;4.72;88.09
6778;BME280;3426;52.244;10.534;2023-01-27T08:49:39;101671.84;;;4.96;87.25
6778;BME280;3426;52.244;10.534;2023-01-27T08:52:06;101668.63;;;5.34;87.13
6778;BME280;3426;52.244;10.534;2023-01-27T08:54:32;101671.38;;;5.25;84.99
6778;BME280;3426;52.244;10.534;2023-01-27T08:56:58;101675.03;;;5.16;85.54
6778;BME280;3426;52.244;10.534;2023-01-27T08:59:25;101668.28;;;4.98;86.37
6778;BME280;3426;52.244;10.534;2023-01-27T09:01:51;101680.06;;;5.30;85.33
6778;BME280;3426;52.244;10.534;2023-01-27T09:04:20;101683.56;;;5.30;84.03
6778;BME280;3426;52.244;10.534;2023-01-27T09:06:47;101687.91;;;5.82;83.58
6778;BME280;3426;52.244;10.534;2023-01-27T09:09:15;101692.09;;;5.43;85.17
6778;BME280;3426;52.244;10.534;2023-01-27T09:11:43;101696.78;;;5.77;83.09
6778;BME280;3426;52.244;10.534;2023-01-27T09:14:10;101696.63;;;5.35;85.43
6778;BME280;3426;52.244;10.534;2023-01-27T09:16:37;101697.00;;;5.09;85.02
6778;BME280;3426;52.244;10.534;2023-01-27T09:19:04;101696.28;;;5.55;83.77
6778;BME280;3426;52.244;10.534;2023-01-27T09:21:30;101702.66;;;4.83;86.53
6778;BME280;3426;52.244;10.534;2023-01-27T09:23:57;101708.59;;;4.96;87.09
6778;BME280;3426;52.244;10.534;2023-01-27T09:26:23;101707.47;;;4.47;86.29
6778;BME280;3426;52.244;10.534;2023-01-27T09:28:50;101717.03;;;4.51;88.78
6778;BME280;3426;52.244;10.534;2023-01-27T09:31:16;101715.59;;;4.95;85.55
6778;BME280;3426;52.244;10.534;2023-01-27T09:33:43;101709.97;;;5.75;84.58
6778;BME280;3426;52.244;10.534;2023-01-27T09:36:12;101706.03;;;5.48;85.17
6778;BME280;3426;52.244;10.534;2023-01-27T09:38:47;101716.59;;;5.45;85.05
6778;BME280;3426;52.244;10.534;2023-01-27T09:58:51;101730.97;;;4.60;86.54
6778;BME280;3426;52.244;10.534;2023-01-27T10:24:12;101719.06;;;4.97;86.91
6778;BME280;3426;52.244;10.534;2023-01-27T10:26:49;101718.72;;;5.22;85.89
6778;BME280;3426;52.244;10.534;2023-01-27T10:32:18;101718.44;;;5.40;84.62
6778;BME280;3426;52.244;10.534;2023-01-27T10:37:30;101717.91;;;5.18;87.30
6778;BME280;3426;52.244;10.534;2023-01-27T10:45:25;101722.03;;;5.87;83.64
6778;BME280;3426;52.244;10.534;2023-01-27T10:50:44;101724.81;;;4.61;85.54
6778;BME280;3426;52.244;10.534;2023-01-27T10:53:20;101713.72;;;5.05;84.91
6778;BME280;3426;52.244;10.534;2023-01-27T10:58:45;101704.38;;;4.84;85.78
6778;BME280;3426;52.244;10.534;2023-01-27T11:01:16;101714.19;;;5.31;83.89
6778;BME280;3426;52.244;10.534;2023-01-27T11:03:56;101716.44;;;5.54;84.08
6778;BME280;3426;52.244;10.534;2023-01-27T11:06:29;101713.31;;;5.31;83.75
6778;BME280;3426;52.244;10.534;2023-01-27T11:09:06;101708.44;;;5.62;83.38
6778;BME280;3426;52.244;10.534;2023-01-27T11:11:34;101704.09;;;5.04;84.63
6778;BME280;3426;52.244;10.534;2023-01-27T11:14:24;101719.81;;;5.07;83.23
6778;BME280;3426;52.244;10.534;2023-01-27T11:16:55;101710.53;;;5.42;83.68
6778;BME280;3426;52.244;10.534;2023-01-27T11:19:29;101702.56;;;4.89;84.93
6778;BME280;3426;52.244;10.534;2023-01-27T11:21:56;101703.75;;;5.28;84.27
6778;BME280;3426;52.244;10.534;2023-01-27T11:24:49;101709.97;;;5.20;83.41
6778;BME280;3426;52.244;10.534;2023-01-27T11:29:56;101709.84;;;4.67;85.67
6778;BME280;3426;52.244;10.534;2023-01-27T11:32:37;101703.28;;;4.99;84.49
6778;BME280;3426;52.244;10.534;2023-01-27T11:35:10;101700.03;;;4.83;84.11
6778;BME280;3426;52.244;10.534;2023-01-27T11:37:39;101720.50;;;4.55;86.18
6778;BME280;3426;52.244;10.534;2023-01-27T11:40:33;101709.59;;;5.44;84.12
6778;BME280;3426;52.244;10.534;2023-01-27T11:43:01;101711.09;;;5.03;82.49
6778;BME280;3426;52.244;10.534;2023-01-27T11:45:34;101714.91;;;4.81;82.95
6778;BME280;3426;52.244;10.534;2023-01-27T11:48:04;101718.56;;;5.31;82.54
6778;BME280;3426;52.244;10.534;2023-01-27T11:50:34;101724.41;;;5.48;80.94
6778;BME280;3426;52.244;10.534;2023-01-27T11:55:39;101726.13;;;4.92;80.92
6778;BME280;3426;52.244;10.534;2023-01-27T12:00:41;101715.59;;;4.95;82.27
6778;BME280;3426;52.244;10.534;2023-01-27T12:06:16;101717.53;;;4.81;83.57
6778;BME280;3426;52.244;10.534;2023-01-27T12:08:44;101715.94;;;5.31;83.28
6778;BME280;3426;52.244;10.534;2023-01-27T12:11:26;101709.78;;;4.70;83.16
6778;BME280;3426;52.244;10.534;2023-01-27T12:16:21;101715.97;;;4.68;81.55
6778;BME280;3426;52.244;10.534;2023-01-27T12:18:57;101714.50;;;4.45;83.38
6778;BME280;3426;52.244;10.534;2023-01-27T12:21:59;101699.69;;;5.04;81.48
6778;BME280;3426;52.244;10.534;2023-01-27T12:24:29;101706.00;;;4.93;82.83
6778;BME280;3426;52.244;10.534;2023-01-27T12:26:57;101691.28;;;4.83;83.33
6778;BME280;3426;52.244;10.534;2023-01-27T12:32:02;101695.41;;;4.34;84.17
6778;BME280;3426;52.244;10.534;2023-01-27T12:34:35;101690.19;;;5.53;80.64
6778;BME280;3426;52.244;10.534;2023-01-27T12:37:05;101689.84;;;4.59;82.32
6778;BME280;3426;52.244;10.534;2023-01-27T12:39:44;101697.72;;;4.60;83.31
6778;BME280;3426;52.244;10.534;2023-01-27T12:42:37;101691.31;;;5.40;80.19
6778;BME280;3426;52.244;10.534;2023-01-27T12:50:32;101706.03;;;4.22;82.18
6778;BME280;3426;52.244;10.534;2023-01-27T12:53:18;101686.97;;;4.06;83.76
6778;BME280;3426;52.244;10.534;2023-01-27T13:01:25;101684.28;;;4.83;81.22
6778;BME280;3426;52.244;10.534;2023-01-27T13:06:28;101683.50;;;4.75;80.99
6778;BME280;3426;52.244;10.534;2023-01-27T13:08:56;101691.19;;;4.19;82.47
6778;BME280;3426;52.244;10.534;2023-01-27T13:11:43;101687.78;;;4.84;79.80
6778;BME280;3426;52.244;10.534;2023-01-27T13:14:15;101702.06;;;4.61;79.90
6778;BME280;3426;52.244;10.534;2023-01-27T13:16:50;101709.53;;;4.22;80.21
6778;BME280;3426;52.244;10.534;2023-01-27T13:19:18;101687.44;;;5.61;76.75
6778;BME280;3426;52.244;10.534;2023-01-27T13:21:48;101690.66;;;3.91;79.56
6778;BME280;3426;52.244;10.534;2023-01-27T13:24:23;101699.69;;;4.40;79.79
6778;BME280;3426;52.244;10.534;2023-01-27T13:26:54;101700.28;;;4.63;78.38
6778;BME280;3426;52.244;10.534;2023-01-27T13:29:24;101704.03;;;5.09;75.85
6778;BME280;3426;52.244;10.534;2023-01-27T13:32:05;101703.13;;;5.10;76.28
6778;BME280;3426;52.244;10.534;2023-01-27T13:34:39;101714.06;;;5.38;75.56
6778;BME280;3426;52.244;10.534;2023-01-27T13:45:26;101726.28;;;4.09;79.37
6778;BME280;3426;52.244;10.534;2023-01-27T13:48:00;101734.06;;;4.14;79.68
6778;BME280;3426;52.244;10.534;2023-01-27T13:50:44;101732.28;;;4.91;76.96
6778;BME280;3426;52.244;10.534;2023-01-27T13:53:15;101738.50;;;4.84;75.29
6778;BME280;3426;52.244;10.534;2023-01-27T14:06:44;101746.66;;;4.61;75.83
6778;BME280;3426;52.244;10.534;2023-01-27T14:09:17;101743.34;;;5.13;73.97
6778;BME280;3426;52.244;10.534;2023-01-27T14:12:01;101749.84;;;4.86;74.19
6778;BME280;3426;52.244;10.534;2023-01-27T14:20:34;101759.03;;;4.51;73.53
6778;BME280;3426;52.244;10.534;2023-01-27T14:25:49;101755.94;;;4.14;73.29
6778;BME280;3426;52.244;10.534;2023-01-27T14:28:27;101761.38;;;4.74;71.23
6778;BME280;3426;52.244;10.534;2023-01-27T14:31:05;101752.50;;;4.09;72.99
6778;BME280;3426;52.244;10.534;2023-01-27T14:36:18;101757.84;;;5.96;66.98
6778;BME280;3426;52.244;10.534;2023-01-27T14:43:55;101749.75;;;4.92;70.61
6778;BME280;3426;52.244;10.534;2023-01-27T14:49:26;101762.50;;;5.20;69.67
6778;BME280;3426;52.244;10.534;2023-01-27T14:57:46;101762.22;;;5.38;70.97
6778;BME280;3426;52.244;10.534;2023-01-27T15:06:06;101777.84;;;5.50;67.33
6778;BME280;3426;52.244;10.534;2023-01-27T15:14:52;101780.41;;;5.53;67.04
6778;BME280;3426;52.244;10.534;2023-01-27T15:20:26;101790.31;;;5.33;68.64
6778;BME280;3426;52.244;10.534;2023-01-27T15:25:52;101798.59;;;5.05;69.59
6778;BME280;3426;52.244;10.534;2023-01-27T15:28:24;101798.59;;;5.05;69.12
6778;BME280;3426;52.244;10.534;2023-01-27T15:31:26;101805.63;;;5.03;69.23
6778;BME280;3426;52.244;10.534;2023-01-27T15:33:54;101806.59;;;4.96;69.46
6778;BME280;3426;52.244;10.534;2023-01-27T15:44:11;101806.28;;;5.79;66.41
6778;BME280;3426;52.244;10.534;2023-01-27T15:46:47;101814.91;;;5.29;67.48
6778;BME280;3426;52.244;10.534;2023-01-27T15:49:18;101809.31;;;5.53;65.60
6778;BME280;3426;52.244;10.534;2023-01-27T15:51:48;101818.34;;;5.34;66.89
6778;BME280;3426;52.244;10.534;2023-01-27T15:54:38;101815.31;;;4.98;67.30
6778;BME280;3426;52.244;10.534;2023-01-27T16:00:49;101814.28;;;5.72;64.60
6778;BME280;3426;52.244;10.534;2023-01-27T16:03:56;101809.84;;;5.17;67.16
6778;BME280;3426;52.244;10.534;2023-01-27T16:06:34;101824.22;;;4.85;68.38
6778;BME280;3426;52.244;10.534;2023-01-27T16:09:36;101816.19;;;5.61;65.93
6778;BME280;3426;52.244;10.534;2023-01-27T16:12:50;101823.69;;;5.28;67.06
6778;BME280;3426;52.244;10.534;2023-01-27T16:19:22;101839.91;;;4.91;68.66
6778;BME280;3426;52.244;10.534;2023-01-27T16:22:03;101827.44;;;5.70;64.93
6778;BME280;3426;52.244;10.534;2023-01-27T16:24:51;101837.81;;;4.44;68.88